Terminal Aerodrome Forecast
Issued by NWS

Current Version | Previous Version | Text Only | Print | Product List | Glossary On
Versions: 1 2 3 4 5 6 7 8 9 10 11 12 13 14 15 16 17 18 19
078
FTUS43 KIND 111120
TAFBMG
TAF
KBMG 111120Z 1112/1212 15008KT P6SM OVC040
     FM111600 17009KT P6SM VCSH OVC040
     FM111800 18009KT 6SM -RA OVC035
     FM112100 19009KT 5SM -RA OVC020
     FM120300 21011G19KT 3SM -RA OVC003
     FM120500 25010KT P6SM OVC003
      AMD LTD TO CLD VIS AND WIND TIL 111400=

USA.gov is the U.S. government's official web portal to all federal, state and local government web resources and services.